Time;durP1;ratioP1;P1;durP2;ratioP2;P2;SDS_P1;SDS_P2;PMS_P1;PMS_P2;Temp;Humidity;BMP_temperature;BMP_pressure;BME280_temperature;BME280_humidity;BME280_pressure;Samples;Min_cycle;Max_cycle;Signal;HPM_P1;HPM_P2
2021/08/12 00:00:16;;;;;;;11.63;5.93;;;;;;;17.40;85.23;96643.53;5056455;28;20135;-79
2021/08/12 00:02:42;;;;;;;12.57;6.35;;;;;;;17.41;85.14;96632.63;5064493;28;20041;-81
2021/08/12 00:05:08;;;;;;;14.13;5.68;;;;;;;17.39;85.08;96640.09;5042041;28;20048;-79
2021/08/12 00:07:34;;;;;;;11.60;6.28;;;;;;;17.37;85.33;96631.56;5065155;28;20048;-76
2021/08/12 00:10:03;;;;;;;12.35;5.78;;;;;;;17.36;85.01;96635.28;5080856;22;20045;-78
2021/08/12 00:12:28;;;;;;;13.48;6.28;;;;;;;17.32;85.17;96637.66;5057529;28;20053;-76
2021/08/12 00:14:54;;;;;;;12.77;5.97;;;;;;;17.35;84.90;96632.91;5072798;28;20056;-77
2021/08/12 00:17:21;;;;;;;11.45;5.68;;;;;;;17.23;85.29;96625.22;5066406;28;20029;-77
2021/08/12 00:19:46;;;;;;;12.88;6.10;;;;;;;17.25;84.97;96623.06;5051012;28;20059;-78
2021/08/12 00:22:12;;;;;;;12.80;5.93;;;;;;;17.23;85.19;96622.56;5057194;28;20045;-79
2021/08/12 00:24:40;;;;;;;13.88;6.15;;;;;;;17.20;85.37;96626.53;5048564;28;20041;-80
2021/08/12 00:27:05;;;;;;;13.45;6.05;;;;;;;17.21;85.47;96627.31;5038887;28;20037;-80
2021/08/12 00:29:32;;;;;;;12.35;6.38;;;;;;;17.15;85.53;96636.38;5040761;28;20047;-80
2021/08/12 00:32:00;;;;;;;12.93;6.57;;;;;;;17.13;85.93;96627.88;5050790;28;20041;-80
2021/08/12 00:34:28;;;;;;;12.07;5.90;;;;;;;17.04;86.18;96631.06;5048810;28;20040;-78
2021/08/12 00:36:53;;;;;;;;;;;;;;;17.07;85.88;96626.28;5021021;28;20107;-78
2021/08/12 00:39:19;;;;;;;12.68;5.93;;;;;;;16.97;86.30;96622.56;5030793;28;19921;-78
2021/08/12 00:41:45;;;;;;;14.15;6.25;;;;;;;16.92;86.43;96630.53;5057804;28;20110;-78
2021/08/12 00:44:10;;;;;;;12.45;6.22;;;;;;;16.87;87.12;96622.56;5026228;28;20029;-79
2021/08/12 00:46:38;;;;;;;14.43;6.38;;;;;;;16.89;86.79;96622.28;5055641;28;20034;-79
2021/08/12 00:49:04;;;;;;;14.00;6.30;;;;;;;16.86;86.79;96631.59;5046157;28;20040;-79
2021/08/12 00:51:35;;;;;;;11.02;6.20;;;;;;;16.86;86.59;96626.28;5038773;28;20049;-79
2021/08/12 00:54:03;;;;;;;13.95;6.47;;;;;;;16.85;86.79;96629.22;5046488;28;20041;-79
2021/08/12 00:56:32;;;;;;;13.02;5.90;;;;;;;16.84;86.60;96633.69;5047461;28;20043;-82
2021/08/12 00:58:58;;;;;;;13.23;6.40;;;;;;;16.79;86.93;96631.06;5025546;28;20097;-79
2021/08/12 01:01:24;;;;;;;11.27;6.13;;;;;;;16.77;87.24;96641.16;5048007;28;20041;-78
2021/08/12 01:03:50;;;;;;;14.93;6.55;;;;;;;16.79;86.76;96631.06;5070235;28;20032;-80
2021/08/12 01:06:22;;;;;;;10.68;6.38;;;;;;;16.73;86.91;96635.53;5048841;28;20048;-80
2021/08/12 01:08:58;;;;;;;12.85;6.28;;;;;;;16.65;87.53;96633.41;5056603;28;20447;-80
2021/08/12 01:11:32;;;;;;;13.27;6.00;;;;;;;16.56;87.83;96631.53;5032215;28;20095;-80
2021/08/12 01:14:08;;;;;;;12.18;6.18;;;;;;;16.50;88.23;96631.50;5043113;28;20072;-79
2021/08/12 01:16:42;;;;;;;18.55;6.82;;;;;;;16.48;88.17;96627.53;5040392;28;20552;-78
2021/08/12 01:19:23;;;;;;;13.30;6.55;;;;;;;16.36;88.79;96635.75;5028882;28;20500;-79
2021/08/12 01:21:58;;;;;;;12.57;6.15;;;;;;;16.39;88.75;96637.84;5022621;28;20302;-79
2021/08/12 01:24:28;;;;;;;13.80;6.65;;;;;;;16.32;88.96;96632.00;5049835;28;20189;-82
2021/08/12 01:27:00;;;;;;;14.35;6.68;;;;;;;16.38;88.96;96633.63;5047004;28;20045;-81
2021/08/12 01:29:47;;;;;;;12.50;6.55;;;;;;;16.43;88.09;96627.53;5064669;28;20052;-82
2021/08/12 01:32:18;;;;;;;13.02;6.00;;;;;;;16.34;88.24;96637.03;5064232;28;20088;-80
2021/08/12 01:34:56;;;;;;;16.15;7.13;;;;;;;16.37;88.05;96634.69;5056723;28;20017;-82
2021/08/12 01:37:24;;;;;;;11.73;6.05;;;;;;;16.37;87.93;96633.88;5046730;28;20049;-81
2021/08/12 01:39:52;;;;;;;13.30;6.20;;;;;;;16.32;87.86;96637.31;5070037;28;20017;-81
2021/08/12 01:42:21;;;;;;;13.75;6.40;;;;;;;16.26;88.03;96633.84;5049911;28;20025;-81
2021/08/12 01:44:49;;;;;;;14.13;6.22;;;;;;;16.30;88.11;96628.78;5043153;28;20060;-81
2021/08/12 01:47:15;;;;;;;13.52;6.53;;;;;;;16.12;88.94;96639.91;5060090;28;20045;-82
2021/08/12 01:49:42;;;;;;;11.65;6.30;;;;;;;16.13;88.78;96638.84;5063342;28;20041;-81
2021/08/12 01:52:12;;;;;;;12.68;6.68;;;;;;;16.16;89.04;96639.13;5034991;28;20100;-82
2021/08/12 01:54:41;;;;;;;13.45;6.25;;;;;;;16.19;88.51;96637.78;5053361;28;20037;-82
2021/08/12 01:57:07;;;;;;;11.80;6.40;;;;;;;16.16;88.47;96635.69;5056980;28;20064;-81
2021/08/12 01:59:33;;;;;;;16.90;6.72;;;;;;;16.07;88.44;96638.03;5045123;28;20037;-81
2021/08/12 02:01:59;;;;;;;14.45;6.78;;;;;;;16.00;89.10;96635.63;5044877;28;20042;-82
2021/08/12 02:04:25;;;;;;;13.80;6.93;;;;;;;16.00;89.26;96635.63;5028317;28;20087;-81
2021/08/12 02:06:51;;;;;;;13.68;6.47;;;;;;;16.01;89.30;96629.25;5059947;28;20037;-81
2021/08/12 02:09:18;;;;;;;13.93;6.47;;;;;;;16.05;89.07;96632.19;5045196;28;20549;-81
2021/08/12 02:11:44;;;;;;;14.32;7.13;;;;;;;16.02;89.16;96630.84;5027225;28;20050;-81
2021/08/12 02:14:12;;;;;;;14.25;6.65;;;;;;;15.91;89.62;96637.16;5048122;28;20033;-81
2021/08/12 02:16:38;;;;;;;13.80;6.72;;;;;;;15.94;89.81;96630.56;5026897;28;20041;-81
2021/08/12 02:19:05;;;;;;;14.05;6.80;;;;;;;15.93;89.58;96624.44;5053617;28;20052;-81
2021/08/12 02:21:34;;;;;;;13.20;7.13;;;;;;;15.98;89.16;96627.13;5065384;28;20055;-81
2021/08/12 02:24:04;;;;;;;11.82;6.65;;;;;;;15.95;89.43;96624.97;5061146;28;20041;-81
2021/08/12 02:26:34;;;;;;;12.60;6.25;;;;;;;15.94;89.45;96620.75;5074068;28;20028;-80
2021/08/12 02:29:03;;;;;;;13.38;6.40;;;;;;;15.91;89.49;96621.25;5053214;28;20179;-81
2021/08/12 02:31:30;;;;;;;12.30;6.07;;;;;;;15.94;89.29;96610.13;5051660;28;20041;-80
2021/08/12 02:33:59;;;;;;;13.20;7.03;;;;;;;15.94;89.06;96620.75;5062945;28;20037;-79
2021/08/12 02:36:25;;;;;;;13.65;6.40;;;;;;;15.78;89.95;96619.06;5041693;28;20890;-80
2021/08/12 02:38:53;;;;;;;15.32;6.90;;;;;;;15.71;90.25;96621.16;5025376;28;20037;-80
2021/08/12 02:41:20;;;;;;;15.07;7.05;;;;;;;15.62;90.64;96620.03;5024187;28;20125;-79
2021/08/12 02:43:52;;;;;;;14.18;7.18;;;;;;;15.52;91.17;96618.13;5048058;28;20064;-82
2021/08/12 02:46:21;;;;;;;14.23;6.32;;;;;;;15.51;91.55;96621.03;5035441;28;20049;-80
2021/08/12 02:48:48;;;;;;;18.90;6.55;;;;;;;15.47;91.47;96612.78;5055313;28;20067;-81
2021/08/12 02:51:15;;;;;;;15.57;7.20;;;;;;;15.53;91.28;96613.59;5027651;28;20071;-82
2021/08/12 02:53:41;;;;;;;12.88;6.88;;;;;;;15.55;91.08;96619.44;5029166;28;20498;-78
2021/08/12 02:56:10;;;;;;;14.27;7.00;;;;;;;15.59;90.79;96618.66;5052080;28;20090;-79
2021/08/12 02:58:40;;;;;;;12.45;6.50;;;;;;;15.63;90.07;96611.03;5026291;28;20072;-79
2021/08/12 03:01:09;;;;;;;12.55;6.25;;;;;;;15.57;90.40;96612.03;5026563;28;20044;-78
2021/08/12 03:03:38;;;;;;;12.38;6.45;;;;;;;15.58;90.40;96606.47;5048494;28;20064;-80
2021/08/12 03:06:07;;;;;;;12.85;7.00;;;;;;;15.61;90.35;96615.78;5065369;28;20045;-79
2021/08/12 03:08:34;;;;;;;13.02;6.35;;;;;;;15.58;90.20;96616.28;5059150;28;20045;-78
2021/08/12 03:11:00;;;;;;;16.15;6.68;;;;;;;15.60;90.46;96619.47;5033082;28;20048;-78
2021/08/12 03:13:26;;;;;;;14.85;6.82;;;;;;;15.55;90.12;96607.00;5049217;28;20041;-79
2021/08/12 03:15:52;;;;;;;13.27;7.15;;;;;;;15.53;90.12;96610.94;5044303;28;20056;-80
2021/08/12 03:18:22;;;;;;;14.93;6.80;;;;;;;15.49;90.24;96608.81;5062622;28;20110;-79
2021/08/12 03:20:47;;;;;;;14.63;6.75;;;;;;;15.49;90.27;96614.09;5053420;28;20041;-77
2021/08/12 03:23:13;;;;;;;13.75;6.82;;;;;;;15.52;90.33;96617.31;5065979;28;20109;-78
2021/08/12 03:25:41;;;;;;;13.50;6.97;;;;;;;15.50;90.35;96625.53;5037557;28;20477;-79
2021/08/12 03:28:09;;;;;;;14.43;6.75;;;;;;;15.56;89.99;96621.06;5031740;28;20045;-79
2021/08/12 03:30:35;;;;;;;15.88;6.47;;;;;;;15.52;89.80;96617.31;5049610;28;20116;-78
2021/08/12 03:33:01;;;;;;;14.15;6.38;;;;;;;15.53;89.58;96625.00;5050075;28;20139;-78
2021/08/12 03:35:30;;;;;;;16.30;6.57;;;;;;;15.59;89.33;96623.19;5068961;28;20162;-79
2021/08/12 03:37:56;;;;;;;13.07;6.65;;;;;;;15.56;89.50;96618.41;5069589;28;20033;-77
2021/08/12 03:40:21;;;;;;;12.43;6.90;;;;;;;15.53;89.30;96618.91;5056150;28;20117;-78
2021/08/12 03:42:47;;;;;;;11.80;6.55;;;;;;;15.51;89.72;96618.38;5056214;28;20068;-78
2021/08/12 03:45:12;;;;;;;13.93;6.28;;;;;;;15.48;89.66;96615.16;5042081;28;20118;-79
2021/08/12 03:47:38;;;;;;;12.13;6.55;;;;;;;15.56;89.22;96616.56;5058476;28;20445;-79
2021/08/12 03:50:04;;;;;;;13.02;6.60;;;;;;;15.42;89.53;96612.75;5042524;28;20076;-83
2021/08/12 03:52:31;;;;;;;13.05;6.32;;;;;;;15.43;89.66;96615.13;5066888;28;20041;-82
2021/08/12 03:54:57;;;;;;;14.02;6.75;;;;;;;15.40;89.54;96612.22;5058668;28;20089;-80
2021/08/12 03:57:22;;;;;;;19.48;6.60;;;;;;;15.31;90.11;96611.88;5058583;28;20093;-80
2021/08/12 03:59:48;;;;;;;13.00;6.88;;;;;;;15.31;89.83;96617.19;5052203;28;20044;-78
2021/08/12 04:02:16;;;;;;;15.57;6.80;;;;;;;15.33;90.26;96616.94;5050062;28;20441;-78
2021/08/12 04:04:42;;;;;;;11.63;6.32;;;;;;;15.41;89.49;96611.94;5051237;28;20097;-79
2021/08/12 04:07:07;;;;;;;16.35;7.38;;;;;;;15.35;89.87;96618.28;5060044;28;20052;-78
2021/08/12 04:09:34;;;;;;;14.82;6.93;;;;;;;15.34;89.74;96616.69;5063787;28;20064;-78
2021/08/12 04:12:01;;;;;;;12.45;6.60;;;;;;;15.33;89.95;96615.06;5048698;28;20056;-82
2021/08/12 04:14:26;;;;;;;12.30;6.50;;;;;;;15.39;89.46;96619.38;5036571;28;20040;-81
2021/08/12 04:16:52;;;;;;;14.43;7.18;;;;;;;15.34;89.72;96616.69;5048770;28;20037;-79
2021/08/12 04:19:18;;;;;;;12.27;6.43;;;;;;;15.28;90.13;96623.00;5040924;28;20045;-84
2021/08/12 04:21:43;;;;;;;12.88;6.63;;;;;;;15.29;90.18;96619.31;5029040;28;20127;-84
2021/08/12 04:24:09;;;;;;;16.48;6.88;;;;;;;15.28;90.40;96616.88;5026502;28;20038;-79
2021/08/12 04:26:38;;;;;;;17.63;7.43;;;;;;;15.27;90.19;96616.09;5038984;28;20052;-79
2021/08/12 04:29:06;;;;;;;14.05;6.82;;;;;;;15.28;90.07;96617.69;5033208;28;20045;-75
2021/08/12 04:31:34;;;;;;;12.57;5.93;;;;;;;15.33;89.93;96616.94;5041715;28;20116;-75
2021/08/12 04:34:00;;;;;;;12.43;6.53;;;;;;;15.33;89.52;96611.63;5048299;28;20041;-77
2021/08/12 04:36:26;;;;;;;11.88;6.30;;;;;;;15.36;89.53;96609.28;5052490;28;20052;-81
2021/08/12 04:38:51;;;;;;;12.25;5.95;;;;;;;15.31;89.54;96614.53;5049449;28;20080;-75
2021/08/12 04:41:17;;;;;;;13.10;6.43;;;;;;;15.30;89.92;96615.59;5035246;28;20077;-76
2021/08/12 04:43:44;;;;;;;12.02;6.28;;;;;;;15.36;89.70;96614.56;5027140;28;20037;-83
2021/08/12 04:46:12;;;;;;;14.27;7.18;;;;;;;15.46;89.15;96619.13;5056239;28;20103;-79
2021/08/12 04:48:38;;;;;;;15.73;6.68;;;;;;;15.52;88.47;96623.41;5055652;28;20041;-80
2021/08/12 04:51:03;;;;;;;11.98;6.05;;;;;;;15.60;87.63;96624.78;5040300;28;20037;-80
2021/08/12 04:53:29;;;;;;;14.02;6.07;;;;;;;15.60;87.83;96630.06;5057464;28;20056;-80
2021/08/12 04:55:54;;;;;;;11.70;5.75;;;;;;;15.62;87.74;96618.16;5060111;28;20040;-78
2021/08/12 04:58:23;;;;;;;11.13;6.03;;;;;;;15.66;87.93;96623.81;5058958;28;20056;-78
2021/08/12 05:00:50;;;;;;;14.18;6.60;;;;;;;15.63;88.43;96621.66;5068652;28;20037;-79
2021/08/12 05:03:15;;;;;;;16.23;6.73;;;;;;;15.71;88.16;96621.16;5061455;28;20071;-80
2021/08/12 05:05:41;;;;;;;12.55;6.38;;;;;;;15.85;87.64;96616.19;5061370;28;20041;-81
2021/08/12 05:08:06;;;;;;;13.73;6.25;;;;;;;16.15;86.31;96613.66;5059148;28;20060;-81
2021/08/12 05:10:32;;;;;;;14.50;6.22;;;;;;;16.51;84.82;96614.50;5041719;28;20066;-79
2021/08/12 05:12:57;;;;;;;12.73;6.30;;;;;;;16.92;82.48;96619.91;5042213;28;20563;-80
2021/08/12 05:15:23;;;;;;;12.75;5.95;;;;;;;17.22;80.78;96626.25;5058817;28;20045;-80
2021/08/12 05:17:50;;;;;;;14.00;5.63;;;;;;;17.68;79.23;96628.84;5041435;28;20037;-80
2021/08/12 05:20:18;;;;;;;13.05;5.80;;;;;;;18.00;77.52;96634.63;5059312;28;20045;-80
2021/08/12 05:22:44;;;;;;;13.13;6.10;;;;;;;18.03;76.22;96636.75;5059675;28;20076;-78
2021/08/12 05:25:10;;;;;;;11.45;6.05;;;;;;;17.96;77.40;96630.09;5042428;28;20048;-80
2021/08/12 05:27:36;;;;;;;13.00;5.90;;;;;;;18.26;76.50;96637.19;5054484;28;20162;-81
2021/08/12 05:30:01;;;;;;;12.48;5.60;;;;;;;18.56;75.16;96636.19;5047959;28;20048;-81
2021/08/12 05:32:27;;;;;;;14.63;6.35;;;;;;;18.76;74.04;96640.63;5046570;28;20052;-78
2021/08/12 05:34:54;;;;;;;16.73;6.05;;;;;;;18.72;74.30;96629.72;5046019;28;20037;-81
2021/08/12 05:37:20;;;;;;;18.47;7.63;;;;;;;18.78;74.29;96633.16;5063883;28;20041;-80
2021/08/12 05:39:45;;;;;;;12.07;5.50;;;;;;;19.41;72.55;96635.84;5063174;28;20433;-81
2021/08/12 05:42:11;;;;;;;14.38;6.20;;;;;;;19.79;71.14;96630.66;5062933;28;20041;-79
2021/08/12 05:44:36;;;;;;;12.73;6.18;;;;;;;19.98;69.37;96644.09;5062042;28;20094;-80
2021/08/12 05:47:02;;;;;;;13.07;5.40;;;;;;;20.34;68.48;96637.22;5046017;28;20053;-80
2021/08/12 05:49:28;;;;;;;12.63;5.90;;;;;;;20.32;68.22;96634.03;5062499;28;20493;-82
2021/08/12 05:51:55;;;;;;;13.30;5.93;;;;;;;20.42;68.11;96625.88;5062736;28;20051;-80
2021/08/12 05:54:21;;;;;;;14.93;5.50;;;;;;;20.58;67.30;96631.84;5044559;28;20358;-80
2021/08/12 05:56:47;;;;;;;15.85;6.18;;;;;;;20.60;67.75;96631.53;5049339;28;20045;-81
2021/08/12 05:59:13;;;;;;;12.88;5.90;;;;;;;20.83;66.80;96630.69;5070678;28;20060;-80
2021/08/12 06:01:38;;;;;;;12.88;5.28;;;;;;;21.17;65.69;96622.38;5070680;28;20044;-79
2021/08/12 06:04:06;;;;;;;14.57;5.13;;;;;;;21.34;65.07;96626.41;5061934;28;20044;-79
2021/08/12 06:06:32;;;;;;;13.52;5.50;;;;;;;21.38;64.21;96630.09;5060631;28;20041;-81
2021/08/12 06:08:59;;;;;;;15.15;5.35;;;;;;;21.92;62.45;96641.94;5061037;28;20063;-78
2021/08/12 06:11:25;;;;;;;11.73;5.63;;;;;;;22.17;61.83;96637.97;5074068;23;20067;-81
2021/08/12 06:13:50;;;;;;;13.82;5.63;;;;;;;22.46;61.32;96646.47;5039221;28;20143;-81
2021/08/12 06:16:16;;;;;;;13.07;6.03;;;;;;;22.56;60.51;96650.84;5057540;28;20037;-81
2021/08/12 06:18:42;;;;;;;15.60;5.70;;;;;;;22.77;59.95;96646.59;5039818;28;20068;-81
2021/08/12 06:21:07;;;;;;;14.63;5.60;;;;;;;22.84;60.37;96646.19;5040198;28;20529;-81
2021/08/12 06:23:35;;;;;;;13.45;5.63;;;;;;;23.01;60.48;96637.50;5058413;28;20041;-80
2021/08/12 06:26:02;;;;;;;13.60;5.40;;;;;;;23.13;58.92;96648.47;5039127;28;20067;-81
2021/08/12 06:28:28;;;;;;;20.02;6.00;;;;;;;22.69;59.81;96650.00;5072687;28;20021;-81
2021/08/12 06:30:53;;;;;;;11.88;6.00;;;;;;;22.23;62.33;96647.53;5071789;28;20068;-81
2021/08/12 06:33:21;;;;;;;10.88;4.82;;;;;;;22.04;63.16;96650.28;5074154;28;20025;-81
2021/08/12 06:35:47;;;;;;;11.93;5.47;;;;;;;21.75;64.46;96654.03;5067271;28;20029;-80
2021/08/12 06:38:15;;;;;;;10.88;5.57;;;;;;;21.55;65.72;96649.06;5060508;28;20052;-80
2021/08/12 06:40:44;;;;;;;13.93;5.70;;;;;;;21.13;66.83;96647.31;5060732;28;20041;-80
2021/08/12 06:43:11;;;;;;;11.10;5.68;;;;;;;20.84;68.05;96647.53;5061661;28;20045;-80
2021/08/12 06:45:36;;;;;;;12.05;5.53;;;;;;;20.73;68.88;96654.09;5047616;28;20045;-80
2021/08/12 06:48:04;;;;;;;11.13;5.43;;;;;;;20.61;69.25;96652.66;5047345;28;20120;-80
2021/08/12 06:50:32;;;;;;;;;;;;;;;20.56;69.71;96662.63;5062843;28;20041;-80
2021/08/12 06:52:58;;;;;;;11.57;5.75;;;;;;;20.37;69.82;96651.88;5062057;28;19932;-80
2021/08/12 06:55:24;;;;;;;10.63;5.15;;;;;;;20.44;70.10;96663.00;5043805;28;20072;-80
2021/08/12 06:57:52;;;;;;;13.40;5.35;;;;;;;20.55;70.05;96659.13;5058424;28;20147;-80
2021/08/12 07:00:20;;;;;;;12.38;5.38;;;;;;;20.67;69.93;96661.41;5057312;28;20068;-80
2021/08/12 07:02:46;;;;;;;11.57;5.50;;;;;;;20.75;69.62;96655.38;5039122;28;20045;-80
2021/08/12 07:05:12;;;;;;;14.10;5.50;;;;;;;20.83;69.36;96665.44;5040112;28;20048;-80
2021/08/12 07:07:40;;;;;;;11.20;5.82;;;;;;;20.70;69.74;96666.94;5056833;28;20072;-80
2021/08/12 07:10:06;;;;;;;11.15;5.70;;;;;;;20.79;69.49;96660.97;5056936;28;20048;-80
2021/08/12 07:12:32;;;;;;;12.15;5.80;;;;;;;21.08;69.04;96666.13;5056872;28;20063;-80
2021/08/12 07:14:58;;;;;;;13.10;5.70;;;;;;;21.10;68.66;96664.75;5041616;28;20040;-80
2021/08/12 07:17:28;;;;;;;11.20;5.57;;;;;;;21.14;68.42;96659.59;5060653;28;20048;-79
2021/08/12 07:19:53;;;;;;;17.88;5.72;;;;;;;21.27;68.50;96663.44;5059769;28;20509;-80
2021/08/12 07:22:22;;;;;;;14.95;5.63;;;;;;;21.48;68.13;96656.69;5039565;28;20044;-80
2021/08/12 07:24:48;;;;;;;13.52;6.30;;;;;;;21.85;66.11;96665.63;5056326;28;20115;-80
2021/08/12 07:27:13;;;;;;;14.90;5.57;;;;;;;22.08;65.38;96658.50;5055876;28;20131;-80
2021/08/12 07:29:39;;;;;;;11.00;5.60;;;;;;;22.71;64.69;96666.59;5057096;28;20037;-80
2021/08/12 07:32:05;;;;;;;10.25;5.20;;;;;;;23.46;61.31;96662.44;5061757;28;20049;-80
2021/08/12 07:34:33;;;;;;;14.07;5.60;;;;;;;23.64;60.67;96657.97;5058850;28;20045;-82
2021/08/12 07:36:58;;;;;;;11.10;5.65;;;;;;;23.76;60.21;96652.81;5058758;28;20045;-81
2021/08/12 07:39:24;;;;;;;13.25;5.50;;;;;;;24.28;58.53;96655.69;5058207;28;20366;-81
2021/08/12 07:41:49;;;;;;;12.07;5.80;;;;;;;24.30;58.29;96642.72;5062829;28;20041;-81
2021/08/12 07:44:15;;;;;;;11.10;6.18;;;;;;;23.97;58.70;96649.56;5074361;28;20170;-81
2021/08/12 07:46:44;;;;;;;9.27;5.00;;;;;;;24.52;57.81;96649.09;5073947;28;20175;-81
2021/08/12 07:49:12;;;;;;;12.25;6.07;;;;;;;25.60;54.58;96644.59;5076138;28;20051;-81
2021/08/12 07:51:41;;;;;;;11.25;5.85;;;;;;;25.46;54.50;96649.41;5077133;28;20060;-81
2021/08/12 07:54:07;;;;;;;12.27;5.38;;;;;;;25.62;53.83;96647.78;5058411;28;20059;-81
2021/08/12 07:56:32;;;;;;;14.13;6.50;;;;;;;25.33;54.20;96646.56;5057402;28;20045;-81
2021/08/12 07:58:58;;;;;;;11.18;6.03;;;;;;;25.29;54.72;96642.13;5039072;28;20075;-81
2021/08/12 08:01:24;;;;;;;10.48;5.40;;;;;;;25.35;54.59;96649.75;5057349;28;20072;-81
2021/08/12 08:03:51;;;;;;;11.75;5.72;;;;;;;25.83;53.54;96646.00;5056043;28;20064;-82
2021/08/12 08:06:17;;;;;;;;;;;;;;;25.62;53.80;96647.78;5056723;28;20072;-81
2021/08/12 08:08:43;;;;;;;13.15;6.00;;;;;;;25.66;53.79;96648.69;5055846;28;19917;-81
2021/08/12 08:11:09;;;;;;;11.63;6.40;;;;;;;27.14;49.95;96646.00;5056393;28;20489;-81
2021/08/12 08:13:35;;;;;;;12.13;6.30;;;;;;;27.95;46.97;96649.91;5056799;28;20214;-81
2021/08/12 08:16:00;;;;;;;12.15;5.43;;;;;;;28.84;44.71;96644.50;5057009;28;20507;-81
2021/08/12 08:18:27;;;;;;;11.93;6.20;;;;;;;28.12;46.04;96651.59;5037733;28;20065;-80
2021/08/12 08:20:53;;;;;;;11.20;5.45;;;;;;;27.73;47.80;96643.03;5071964;28;20052;-81
2021/08/12 08:23:21;;;;;;;12.18;5.45;;;;;;;27.16;48.32;96641.03;5073126;28;20049;-80
2021/08/12 08:25:48;;;;;;;12.57;6.15;;;;;;;27.10;48.47;96651.25;5072323;28;20053;-82
2021/08/12 08:28:14;;;;;;;11.38;5.75;;;;;;;27.11;48.50;96646.63;5073485;28;20041;-81
2021/08/12 08:30:40;;;;;;;11.57;6.10;;;;;;;26.76;49.30;96641.50;5061865;28;20509;-81
2021/08/12 08:33:06;;;;;;;14.00;5.72;;;;;;;26.27;51.40;96646.56;5057059;28;20037;-81
2021/08/12 08:35:35;;;;;;;13.20;6.18;;;;;;;25.94;52.21;96643.72;5055947;28;20119;-81
2021/08/12 08:38:01;;;;;;;11.15;6.43;;;;;;;25.68;53.44;96646.50;5055614;28;20514;-81
2021/08/12 08:40:28;;;;;;;11.63;5.88;;;;;;;26.49;50.94;96647.44;5055729;28;20049;-80
2021/08/12 08:42:55;;;;;;;14.05;6.03;;;;;;;27.09;50.02;96646.19;5037734;28;20052;-81
2021/08/12 08:45:22;;;;;;;14.80;5.78;;;;;;;27.84;47.15;96644.16;5055111;28;20063;-79
2021/08/12 08:47:49;;;;;;;13.80;5.78;;;;;;;28.13;45.93;96642.34;5055665;28;20117;-80
2021/08/12 08:50:19;;;;;;;10.45;5.20;;;;;;;28.62;44.97;96639.63;5057713;28;20048;-81
2021/08/12 08:52:46;;;;;;;12.88;5.53;;;;;;;28.46;46.30;96639.53;5057303;28;20114;-79
2021/08/12 08:55:14;;;;;;;12.90;5.97;;;;;;;28.50;45.32;96630.41;5055629;28;20045;-80
2021/08/12 08:57:40;;;;;;;12.18;5.57;;;;;;;28.06;46.57;96637.53;5055086;28;20041;-79
2021/08/12 09:00:10;;;;;;;10.90;5.60;;;;;;;28.44;45.36;96631.75;5055622;28;20459;-81
2021/08/12 09:02:36;;;;;;;12.25;5.90;;;;;;;28.70;44.71;96627.88;5056840;28;20040;-80
2021/08/12 09:05:02;;;;;;;12.03;5.60;;;;;;;29.48;43.65;96631.97;5056766;28;20493;-81
2021/08/12 09:07:30;;;;;;;13.10;5.60;;;;;;;29.90;42.01;96635.00;5038491;28;20045;-81
2021/08/12 09:09:59;;;;;;;11.15;5.30;;;;;;;30.53;41.20;96634.16;5056328;28;20132;-81
2021/08/12 09:12:30;;;;;;;13.95;5.63;;;;;;;29.76;41.87;96627.31;5056076;28;20043;-80
2021/08/12 09:15:03;;;;;;;10.77;5.10;;;;;;;30.12;41.13;96621.97;5055933;28;20041;-80
2021/08/12 09:17:31;;;;;;;14.70;5.60;;;;;;;29.65;42.47;96628.16;5054562;28;20049;-80
2021/08/12 09:20:04;;;;;;;11.25;5.13;;;;;;;29.32;42.81;96625.72;5054922;28;20037;-80
2021/08/12 09:22:48;;;;;;;14.45;8.25;;;;;;;29.16;43.19;96623.00;5036732;28;20505;-80
2021/08/12 09:25:14;;;;;;;11.48;5.70;;;;;;;28.56;44.87;96619.34;5036830;28;20048;-80
2021/08/12 09:27:40;;;;;;;15.03;5.03;;;;;;;28.62;44.08;96618.75;5054668;28;20056;-81
2021/08/12 09:30:10;;;;;;;13.00;6.20;;;;;;;27.11;47.44;96625.03;5055755;28;20041;-81
2021/08/12 09:32:48;;;;;;;12.45;5.25;;;;;;;27.48;47.07;96618.63;5044220;28;20140;-80
2021/08/12 09:35:22;;;;;;;11.10;5.32;;;;;;;27.03;47.59;96620.50;5042039;28;20109;-81
2021/08/12 09:37:48;;;;;;;11.30;4.88;;;;;;;26.97;46.98;96624.53;5057499;28;20071;-81
2021/08/12 09:40:13;;;;;;;10.93;5.20;;;;;;;27.26;47.08;96615.53;5037798;28;20037;-81
2021/08/12 09:42:55;;;;;;;9.55;4.60;;;;;;;27.34;46.80;96615.44;5055726;28;20160;-81
2021/08/12 09:45:23;;;;;;;11.43;5.70;;;;;;;27.45;46.78;96608.50;5054884;28;20045;-81
2021/08/12 09:47:50;;;;;;;12.30;5.32;;;;;;;27.19;48.36;96611.47;5054376;28;20048;-80
2021/08/12 09:50:22;;;;;;;;;;;;;;;26.91;48.88;96615.84;5067760;28;20084;-81
2021/08/12 09:52:48;;;;;;;13.07;5.70;;;;;;;27.08;48.17;96609.53;5071663;28;19920;-81
2021/08/12 09:55:19;;;;;;;11.43;5.55;;;;;;;27.05;48.23;96610.94;5073708;28;20049;-80
2021/08/12 09:57:47;;;;;;;12.57;5.68;;;;;;;26.87;48.29;96615.69;5055596;28;20045;-80
2021/08/12 10:00:16;;;;;;;;;;;;;;;27.02;47.75;96624.31;5066599;28;20037;-80
2021/08/12 10:02:42;;;;;;;12.25;6.00;;;;;;;26.91;48.70;96615.84;5054129;28;19971;-80
2021/08/12 10:05:11;;;;;;;10.60;5.43;;;;;;;26.95;49.01;96614.81;5053113;28;20037;-80
2021/08/12 10:07:39;;;;;;;12.98;5.60;;;;;;;27.12;48.33;96605.00;5054088;28;20045;-80
2021/08/12 10:10:16;;;;;;;11.13;5.18;;;;;;;27.39;48.82;96609.03;5054029;28;20041;-80
2021/08/12 10:12:46;;;;;;;12.57;5.47;;;;;;;27.25;49.29;96595.84;5067911;28;20037;-80
2021/08/12 10:15:14;;;;;;;14.35;5.50;;;;;;;27.68;48.89;96602.66;5072007;28;20033;-80
2021/08/12 10:17:42;;;;;;;11.20;5.20;;;;;;;27.62;48.88;96612.13;5039722;28;20113;-80
2021/08/12 10:20:12;;;;;;;10.50;5.57;;;;;;;27.55;47.52;96601.06;5057503;28;20082;-80
2021/08/12 10:22:41;;;;;;;11.20;6.05;;;;;;;27.57;47.75;96610.41;5040011;28;20048;-81
2021/08/12 10:25:12;;;;;;;14.82;5.60;;;;;;;27.57;47.95;96609.63;5056755;28;20037;-80
2021/08/12 10:27:40;;;;;;;13.00;5.85;;;;;;;27.68;48.48;96608.06;5057782;28;20056;-80
2021/08/12 10:30:07;;;;;;;10.65;5.80;;;;;;;27.76;47.20;96604.50;5058252;28;20048;-81
2021/08/12 10:32:35;;;;;;;12.80;5.45;;;;;;;27.96;47.17;96611.72;5058382;28;20073;-81
2021/08/12 10:35:02;;;;;;;12.27;6.20;;;;;;;27.93;46.24;96604.28;5058245;28;20041;-81
2021/08/12 10:37:32;;;;;;;11.55;5.72;;;;;;;27.91;47.26;96603.81;5057348;28;20057;-81
2021/08/12 10:40:00;;;;;;;11.88;5.57;;;;;;;28.21;46.96;96600.88;5058453;28;20138;-81
2021/08/12 10:42:27;;;;;;;12.20;6.03;;;;;;;28.33;46.18;96597.41;5057440;28;20057;-80
2021/08/12 10:44:53;;;;;;;10.68;5.80;;;;;;;28.07;46.24;96589.63;5040978;28;20425;-80
2021/08/12 10:47:41;;;;;;;16.25;5.88;;;;;;;28.19;46.71;96584.19;5058465;28;20041;-80
2021/08/12 10:50:31;;;;;;;12.57;5.82;;;;;;;28.35;45.38;96592.44;5058943;28;20065;-81
2021/08/12 10:53:16;;;;;;;11.80;6.00;;;;;;;28.58;44.66;96582.69;5060227;28;20044;-80
2021/08/12 10:56:01;;;;;;;11.55;5.70;;;;;;;28.71;43.71;96578.03;5061111;28;20489;-80
2021/08/12 10:58:35;;;;;;;13.10;5.95;;;;;;;28.58;42.77;96587.31;5061895;28;20052;-80
2021/08/12 11:01:07;;;;;;;10.48;5.60;;;;;;;28.60;41.40;96593.16;5043407;28;20143;-80
2021/08/12 11:03:43;;;;;;;12.05;5.70;;;;;;;28.80;40.56;96586.78;5061546;28;20132;-80
2021/08/12 11:06:11;;;;;;;13.45;6.90;;;;;;;29.08;41.06;96583.31;5060134;28;20064;-81
2021/08/12 11:09:02;;;;;;;10.60;5.82;;;;;;;29.60;40.08;96585.03;5059795;28;20045;-80
2021/08/12 11:11:54;;;;;;;11.52;6.65;;;;;;;29.37;38.60;96582.13;5061400;28;20047;-80
2021/08/12 11:14:50;;;;;;;9.90;5.63;;;;;;;29.69;38.98;96581.03;5063746;28;20039;-80
2021/08/12 11:17:19;;;;;;;10.98;6.07;;;;;;;29.79;39.07;96587.84;5061001;28;20079;-80
2021/08/12 11:19:47;;;;;;;10.35;5.93;;;;;;;29.65;39.39;96587.50;5042529;28;20102;-81
2021/08/12 11:22:35;;;;;;;14.30;6.65;;;;;;;29.84;40.12;96587.59;5059409;28;20273;-80
2021/08/12 11:25:06;;;;;;;11.50;5.95;;;;;;;29.73;40.20;96586.53;5038468;28;20086;-81
2021/08/12 11:27:36;;;;;;;11.75;6.40;;;;;;;29.92;39.81;96586.63;5058841;28;20041;-80
2021/08/12 11:30:45;;;;;;;12.35;6.00;;;;;;;30.17;39.37;96583.72;5042608;28;20048;-80